Weather at John Wayne Airport-Orange County Airport

Public forecast

Using degrees Fahrenheit for public forecast. Weather courtesy of forecast.io.

Current aviation weather report (METAR) for John Wayne Airport-Orange County Airport

Retrieved 2021/07/23 23:53 UTC (50 minutes ago):

KSNA 232353Z 20011KT 10SM FEW020 BKN300 25/18 A3000 RMK AO2 SLP158 T02500178 10272 20244 58009

Aviation forecast (TAF) for John Wayne Airport-Orange County Airport

Retrieved 2021-07-24 00:30 UTC (13 minutes ago):

TAF KSNA 232329Z 2400/2424 21009KT P6SM FEW010 SCT200 FM240300 VRB04KT P6SM OVC012 TEMPO 2403/2407 SCT010 FM241800 24009KT P6SM BKN150